TimeEDT,TemperatureF,Dew PointF,Humidity,Sea Level PressureIn,VisibilityMPH,Wind Direction,Wind SpeedMPH,Gust SpeedMPH,PrecipitationIn,Events,Conditions,WindDirDegrees,DateUTC
12:54 AM,59.0,42.1,53,30.21,10.0,Calm,Calm,-,N/A,,Scattered Clouds,0,2013-05-18 04:54:00
1:54 AM,59.0,44.1,58,30.22,10.0,Calm,Calm,-,N/A,,Overcast,0,2013-05-18 05:54:00
2:54 AM,59.0,44.1,58,30.22,10.0,Calm,Calm,-,N/A,,Overcast,0,2013-05-18 06:54:00
3:54 AM,57.9,45.0,62,30.24,10.0,Calm,Calm,-,N/A,,Overcast,0,2013-05-18 07:54:00
4:54 AM,57.0,48.0,72,30.25,10.0,Calm,Calm,-,N/A,,Overcast,0,2013-05-18 08:54:00
5:54 AM,57.0,48.0,72,30.25,10.0,Calm,Calm,-,0.00,,Overcast,0,2013-05-18 09:54:00
6:54 AM,57.9,48.0,70,30.27,10.0,Calm,Calm,-,N/A,,Overcast,0,2013-05-18 10:54:00
7:54 AM,59.0,48.0,67,30.29,10.0,ESE,5.8,-,N/A,,Overcast,120,2013-05-18 11:54:00
8:54 AM,61.0,48.0,62,30.30,10.0,SE,4.6,-,N/A,,Scattered Clouds,130,2013-05-18 12:54:00
9:54 AM,61.0,50.0,67,30.30,10.0,SE,6.9,-,N/A,,Overcast,130,2013-05-18 13:54:00
10:54 AM,63.0,51.1,65,30.30,10.0,SE,6.9,-,N/A,,Overcast,130,2013-05-18 14:54:00
11:54 AM,64.0,50.0,60,30.30,10.0,SSE,5.8,-,N/A,,Overcast,160,2013-05-18 15:54:00
12:54 PM,64.9,52.0,63,30.28,10.0,SE,8.1,-,0.00,,Overcast,140,2013-05-18 16:54:00
1:15 PM,66.2,53.6,64,30.28,10.0,SE,6.9,-,0.00,,Overcast,130,2013-05-18 17:15:00
1:25 PM,66.2,51.8,60,30.28,10.0,SE,10.4,-,0.00,,Overcast,130,2013-05-18 17:25:00
1:54 PM,68.0,51.1,55,30.27,10.0,SE,9.2,-,0.00,,Overcast,140,2013-05-18 17:54:00
2:54 PM,66.2,48.2,52,30.27,10.0,SSE,10.4,16.1,N/A,,Mostly Cloudy,150,2013-05-18 18:54:00
3:54 PM,64.0,51.1,63,30.28,10.0,SE,9.2,-,0.00,Rain,Light Rain,130,2013-05-18 19:54:00
4:54 PM,61.0,53.1,75,30.29,10.0,SE,11.5,-,0.00,Rain,Light Rain,130,2013-05-18 20:54:00
5:54 PM,59.0,55.4,88,30.29,10.0,ESE,8.1,-,N/A,Rain,Light Rain,110,2013-05-18 21:54:00
6:54 PM,59.0,55.0,87,30.29,10.0,ESE,8.1,-,0.00,,Overcast,110,2013-05-18 22:54:00
7:54 PM,59.0,55.0,87,30.29,10.0,ESE,8.1,-,0.00,Rain,Light Rain,120,2013-05-18 23:54:00
8:54 PM,57.9,55.0,90,30.29,10.0,SE,8.1,-,0.01,Rain,Light Rain,130,2013-05-19 00:54:00
9:54 PM,57.9,54.0,87,30.31,9.0,SE,10.4,-,0.00,Rain,Light Rain,130,2013-05-19 01:54:00
10:30 PM,57.2,55.4,94,30.30,4.0,SE,5.8,-,0.04,Rain,Rain,130,2013-05-19 02:30:00
10:37 PM,57.2,55.4,94,30.30,3.0,SE,6.9,-,0.06,Rain,Rain,130,2013-05-19 02:37:00
10:54 PM,57.0,55.0,93,30.30,5.0,ESE,8.1,-,0.08,Rain,Light Rain,120,2013-05-19 02:54:00
10:57 PM,57.2,55.4,94,30.30,6.0,SE,5.8,-,0.00,Rain,Light Rain,130,2013-05-19 02:57:00
11:54 PM,57.0,55.0,93,30.29,7.0,ESE,8.1,-,0.02,Rain,Light Rain,120,2013-05-19 03:54:00